sensor_id;sensor_type;location;lat;lon;timestamp;temperature;humidity
6407;DHT22;3236;51.022;6.818;2023-03-03T00:00:17;1.30;99.90
6407;DHT22;3236;51.022;6.818;2023-03-03T00:02:44;1.10;99.90
6407;DHT22;3236;51.022;6.818;2023-03-03T00:05:11;1.30;99.90
6407;DHT22;3236;51.022;6.818;2023-03-03T00:07:42;1.20;99.90
6407;DHT22;3236;51.022;6.818;2023-03-03T00:10:11;1.10;99.90
6407;DHT22;3236;51.022;6.818;2023-03-03T00:12:45;1.10;99.90
6407;DHT22;3236;51.022;6.818;2023-03-03T00:15:16;0.80;99.90
6407;DHT22;3236;51.022;6.818;2023-03-03T00:20:34;0.60;99.90
6407;DHT22;3236;51.022;6.818;2023-03-03T00:23:19;0.60;99.90
6407;DHT22;3236;51.022;6.818;2023-03-03T00:25:51;0.50;99.90
6407;DHT22;3236;51.022;6.818;2023-03-03T00:28:23;0.40;99.90
6407;DHT22;3236;51.022;6.818;2023-03-03T00:30:51;0.40;99.90
6407;DHT22;3236;51.022;6.818;2023-03-03T00:33:26;0.70;99.90
6407;DHT22;3236;51.022;6.818;2023-03-03T00:35:54;0.70;99.90
6407;DHT22;3236;51.022;6.818;2023-03-03T00:38:26;0.60;99.90
6407;DHT22;3236;51.022;6.818;2023-03-03T00:40:54;0.60;99.90
6407;DHT22;3236;51.022;6.818;2023-03-03T00:43:23;0.60;99.90
6407;DHT22;3236;51.022;6.818;2023-03-03T00:45:51;0.60;99.90
6407;DHT22;3236;51.022;6.818;2023-03-03T00:48:24;0.40;99.90
6407;DHT22;3236;51.022;6.818;2023-03-03T00:50:52;0.60;99.90
6407;DHT22;3236;51.022;6.818;2023-03-03T00:53:24;0.60;99.90
6407;DHT22;3236;51.022;6.818;2023-03-03T00:55:51;0.70;99.90
6407;DHT22;3236;51.022;6.818;2023-03-03T00:58:21;0.50;99.90
6407;DHT22;3236;51.022;6.818;2023-03-03T01:00:50;0.60;99.90
6407;DHT22;3236;51.022;6.818;2023-03-03T01:03:19;0.60;99.90
6407;DHT22;3236;51.022;6.818;2023-03-03T01:05:46;0.60;99.90
6407;DHT22;3236;51.022;6.818;2023-03-03T01:08:14;0.50;99.90
6407;DHT22;3236;51.022;6.818;2023-03-03T01:10:44;0.50;99.90
6407;DHT22;3236;51.022;6.818;2023-03-03T01:13:12;0.40;99.90
6407;DHT22;3236;51.022;6.818;2023-03-03T01:15:40;0.30;99.90
6407;DHT22;3236;51.022;6.818;2023-03-03T01:18:11;0.30;99.90
6407;DHT22;3236;51.022;6.818;2023-03-03T01:20:38;0.30;99.90
6407;DHT22;3236;51.022;6.818;2023-03-03T01:23:06;0.50;99.90
6407;DHT22;3236;51.022;6.818;2023-03-03T01:25:33;0.10;99.90
6407;DHT22;3236;51.022;6.818;2023-03-03T01:28:01;0.10;99.90
6407;DHT22;3236;51.022;6.818;2023-03-03T01:30:28;0.00;99.90
6407;DHT22;3236;51.022;6.818;2023-03-03T01:32:57;0.00;99.90
6407;DHT22;3236;51.022;6.818;2023-03-03T01:35:24;-0.20;99.90
6407;DHT22;3236;51.022;6.818;2023-03-03T01:37:51;-0.20;99.90
6407;DHT22;3236;51.022;6.818;2023-03-03T01:40:20;0.10;99.90
6407;DHT22;3236;51.022;6.818;2023-03-03T01:42:47;0.00;99.90
6407;DHT22;3236;51.022;6.818;2023-03-03T01:45:20;0.10;99.90
6407;DHT22;3236;51.022;6.818;2023-03-03T01:47:51;0.00;99.90
6407;DHT22;3236;51.022;6.818;2023-03-03T01:50:34;0.00;99.90
6407;DHT22;3236;51.022;6.818;2023-03-03T01:53:04;0.00;99.90
6407;DHT22;3236;51.022;6.818;2023-03-03T01:55:36;0.00;99.90
6407;DHT22;3236;51.022;6.818;2023-03-03T01:58:08;0.10;99.90
6407;DHT22;3236;51.022;6.818;2023-03-03T02:00:38;0.00;99.90
6407;DHT22;3236;51.022;6.818;2023-03-03T02:03:06;0.30;99.90
6407;DHT22;3236;51.022;6.818;2023-03-03T02:05:35;0.10;99.90
6407;DHT22;3236;51.022;6.818;2023-03-03T02:08:03;0.20;99.90
6407;DHT22;3236;51.022;6.818;2023-03-03T02:10:31;0.20;99.90
6407;DHT22;3236;51.022;6.818;2023-03-03T02:12:58;0.50;99.90
6407;DHT22;3236;51.022;6.818;2023-03-03T02:15:27;0.50;99.90
6407;DHT22;3236;51.022;6.818;2023-03-03T02:18:02;0.70;99.90
6407;DHT22;3236;51.022;6.818;2023-03-03T02:20:45;0.60;99.90
6407;DHT22;3236;51.022;6.818;2023-03-03T02:23:21;1.00;99.90
6407;DHT22;3236;51.022;6.818;2023-03-03T02:26:07;1.50;99.90
6407;DHT22;3236;51.022;6.818;2023-03-03T02:28:36;1.30;99.90
6407;DHT22;3236;51.022;6.818;2023-03-03T02:31:06;1.10;99.90
6407;DHT22;3236;51.022;6.818;2023-03-03T02:33:40;0.90;99.90
6407;DHT22;3236;51.022;6.818;2023-03-03T02:36:11;1.30;99.90
6407;DHT22;3236;51.022;6.818;2023-03-03T02:38:43;1.20;99.90
6407;DHT22;3236;51.022;6.818;2023-03-03T02:41:17;1.20;99.90
6407;DHT22;3236;51.022;6.818;2023-03-03T02:43:51;1.10;99.90
6407;DHT22;3236;51.022;6.818;2023-03-03T02:46:19;1.50;99.90
6407;DHT22;3236;51.022;6.818;2023-03-03T02:48:46;1.00;99.90
6407;DHT22;3236;51.022;6.818;2023-03-03T02:51:13;1.50;99.90
6407;DHT22;3236;51.022;6.818;2023-03-03T02:53:40;1.30;99.90
6407;DHT22;3236;51.022;6.818;2023-03-03T02:56:07;1.00;99.90
6407;DHT22;3236;51.022;6.818;2023-03-03T02:58:36;1.30;99.90
6407;DHT22;3236;51.022;6.818;2023-03-03T03:01:04;1.30;99.90
6407;DHT22;3236;51.022;6.818;2023-03-03T03:03:37;1.90;99.90
6407;DHT22;3236;51.022;6.818;2023-03-03T03:06:05;1.20;99.90
6407;DHT22;3236;51.022;6.818;2023-03-03T03:08:32;1.20;99.90
6407;DHT22;3236;51.022;6.818;2023-03-03T03:10:59;1.20;99.90
6407;DHT22;3236;51.022;6.818;2023-03-03T03:13:29;1.10;99.90
6407;DHT22;3236;51.022;6.818;2023-03-03T03:15:59;1.20;99.90
6407;DHT22;3236;51.022;6.818;2023-03-03T03:18:26;1.20;99.90
6407;DHT22;3236;51.022;6.818;2023-03-03T03:23:21;1.10;99.90
6407;DHT22;3236;51.022;6.818;2023-03-03T03:25:48;1.40;99.90
6407;DHT22;3236;51.022;6.818;2023-03-03T03:28:16;1.40;99.90
6407;DHT22;3236;51.022;6.818;2023-03-03T03:30:43;1.20;99.90
6407;DHT22;3236;51.022;6.818;2023-03-03T03:33:12;1.10;99.90
6407;DHT22;3236;51.022;6.818;2023-03-03T03:35:39;2.10;99.90
6407;DHT22;3236;51.022;6.818;2023-03-03T03:38:10;1.20;99.90
6407;DHT22;3236;51.022;6.818;2023-03-03T03:43:05;1.30;99.90
6407;DHT22;3236;51.022;6.818;2023-03-03T03:45:32;1.30;99.90
6407;DHT22;3236;51.022;6.818;2023-03-03T03:47:59;1.20;99.90
6407;DHT22;3236;51.022;6.818;2023-03-03T03:50:28;1.20;99.90
6407;DHT22;3236;51.022;6.818;2023-03-03T03:52:55;1.20;99.90
6407;DHT22;3236;51.022;6.818;2023-03-03T03:55:22;1.30;99.90
6407;DHT22;3236;51.022;6.818;2023-03-03T03:57:49;1.30;99.90
6407;DHT22;3236;51.022;6.818;2023-03-03T04:00:16;1.40;99.90
6407;DHT22;3236;51.022;6.818;2023-03-03T04:02:44;1.40;99.90
6407;DHT22;3236;51.022;6.818;2023-03-03T04:05:17;1.40;99.90
6407;DHT22;3236;51.022;6.818;2023-03-03T04:07:48;1.90;99.90
6407;DHT22;3236;51.022;6.818;2023-03-03T04:10:15;1.50;99.90
6407;DHT22;3236;51.022;6.818;2023-03-03T04:12:43;1.40;99.90
6407;DHT22;3236;51.022;6.818;2023-03-03T04:15:12;1.50;99.90
6407;DHT22;3236;51.022;6.818;2023-03-03T04:17:40;1.40;99.90
6407;DHT22;3236;51.022;6.818;2023-03-03T04:20:12;1.40;99.90
6407;DHT22;3236;51.022;6.818;2023-03-03T04:22:39;1.30;99.90
6407;DHT22;3236;51.022;6.818;2023-03-03T04:25:09;2.10;99.90
6407;DHT22;3236;51.022;6.818;2023-03-03T04:27:38;1.40;99.90
6407;DHT22;3236;51.022;6.818;2023-03-03T04:30:06;1.40;99.90
6407;DHT22;3236;51.022;6.818;2023-03-03T04:32:33;1.50;99.90
6407;DHT22;3236;51.022;6.818;2023-03-03T04:35:01;1.40;99.90
6407;DHT22;3236;51.022;6.818;2023-03-03T04:37:28;1.40;99.90
6407;DHT22;3236;51.022;6.818;2023-03-03T04:39:55;1.10;99.90
6407;DHT22;3236;51.022;6.818;2023-03-03T04:42:23;1.60;99.90
6407;DHT22;3236;51.022;6.818;2023-03-03T04:44:52;1.20;99.90
6407;DHT22;3236;51.022;6.818;2023-03-03T04:47:22;1.10;99.90
6407;DHT22;3236;51.022;6.818;2023-03-03T04:49:49;1.30;99.90
6407;DHT22;3236;51.022;6.818;2023-03-03T04:52:16;1.30;99.90
6407;DHT22;3236;51.022;6.818;2023-03-03T04:54:43;1.40;99.90
6407;DHT22;3236;51.022;6.818;2023-03-03T04:57:10;1.40;99.90
6407;DHT22;3236;51.022;6.818;2023-03-03T04:59:39;1.30;99.90
6407;DHT22;3236;51.022;6.818;2023-03-03T05:02:06;1.30;99.90
6407;DHT22;3236;51.022;6.818;2023-03-03T05:04:33;1.00;99.90
6407;DHT22;3236;51.022;6.818;2023-03-03T05:07:00;1.30;99.90
6407;DHT22;3236;51.022;6.818;2023-03-03T05:09:27;1.20;99.90
6407;DHT22;3236;51.022;6.818;2023-03-03T05:14:22;1.30;99.90
6407;DHT22;3236;51.022;6.818;2023-03-03T05:16:50;1.40;99.90
6407;DHT22;3236;51.022;6.818;2023-03-03T05:19:17;1.40;99.90
6407;DHT22;3236;51.022;6.818;2023-03-03T05:21:44;1.30;99.90
6407;DHT22;3236;51.022;6.818;2023-03-03T05:24:13;1.20;99.90
6407;DHT22;3236;51.022;6.818;2023-03-03T05:26:40;1.20;99.90
6407;DHT22;3236;51.022;6.818;2023-03-03T05:29:09;1.20;99.90
6407;DHT22;3236;51.022;6.818;2023-03-03T05:31:36;1.40;99.90
6407;DHT22;3236;51.022;6.818;2023-03-03T05:34:04;1.20;99.90
6407;DHT22;3236;51.022;6.818;2023-03-03T05:36:31;1.20;99.90
6407;DHT22;3236;51.022;6.818;2023-03-03T05:38:58;1.20;99.90
6407;DHT22;3236;51.022;6.818;2023-03-03T05:41:25;1.40;99.90
6407;DHT22;3236;51.022;6.818;2023-03-03T05:43:52;1.50;99.90
6407;DHT22;3236;51.022;6.818;2023-03-03T05:46:21;1.20;99.90
6407;DHT22;3236;51.022;6.818;2023-03-03T05:48:48;1.30;99.90
6407;DHT22;3236;51.022;6.818;2023-03-03T05:51:17;1.50;99.90
6407;DHT22;3236;51.022;6.818;2023-03-03T05:56:11;1.50;99.90
6407;DHT22;3236;51.022;6.818;2023-03-03T05:58:38;2.00;99.90
6407;DHT22;3236;51.022;6.818;2023-03-03T06:01:05;1.30;99.90
6407;DHT22;3236;51.022;6.818;2023-03-03T06:03:35;1.10;99.90
6407;DHT22;3236;51.022;6.818;2023-03-03T06:08:31;1.10;99.90
6407;DHT22;3236;51.022;6.818;2023-03-03T06:11:01;1.10;99.90
6407;DHT22;3236;51.022;6.818;2023-03-03T06:13:28;1.30;99.90
6407;DHT22;3236;51.022;6.818;2023-03-03T06:15:55;1.40;99.90
6407;DHT22;3236;51.022;6.818;2023-03-03T06:18:22;1.50;99.90
6407;DHT22;3236;51.022;6.818;2023-03-03T06:20:51;1.30;99.90
6407;DHT22;3236;51.022;6.818;2023-03-03T06:23:18;1.30;99.90
6407;DHT22;3236;51.022;6.818;2023-03-03T06:25:47;1.10;99.90
6407;DHT22;3236;51.022;6.818;2023-03-03T06:28:17;1.30;99.90
6407;DHT22;3236;51.022;6.818;2023-03-03T06:30:44;1.20;99.90
6407;DHT22;3236;51.022;6.818;2023-03-03T06:33:11;1.30;99.90
6407;DHT22;3236;51.022;6.818;2023-03-03T06:35:38;1.70;99.90
6407;DHT22;3236;51.022;6.818;2023-03-03T06:38:06;1.30;99.90
6407;DHT22;3236;51.022;6.818;2023-03-03T06:40:33;1.60;99.90
6407;DHT22;3236;51.022;6.818;2023-03-03T06:43:02;1.40;99.90
6407;DHT22;3236;51.022;6.818;2023-03-03T06:45:28;1.50;99.90
6407;DHT22;3236;51.022;6.818;2023-03-03T06:50:23;1.10;99.90
6407;DHT22;3236;51.022;6.818;2023-03-03T06:52:59;1.40;99.90
6407;DHT22;3236;51.022;6.818;2023-03-03T06:55:27;1.40;99.90
6407;DHT22;3236;51.022;6.818;2023-03-03T06:57:55;1.40;99.90
6407;DHT22;3236;51.022;6.818;2023-03-03T07:00:26;1.30;99.90
6407;DHT22;3236;51.022;6.818;2023-03-03T07:02:57;1.40;99.90
6407;DHT22;3236;51.022;6.818;2023-03-03T07:05:26;1.50;99.90
6407;DHT22;3236;51.022;6.818;2023-03-03T07:07:54;1.50;99.90
6407;DHT22;3236;51.022;6.818;2023-03-03T07:10:23;1.60;99.90
6407;DHT22;3236;51.022;6.818;2023-03-03T07:12:51;1.40;99.90
6407;DHT22;3236;51.022;6.818;2023-03-03T07:15:21;2.30;99.90
6407;DHT22;3236;51.022;6.818;2023-03-03T07:17:53;1.60;99.90
6407;DHT22;3236;51.022;6.818;2023-03-03T07:20:35;1.80;99.90
6407;DHT22;3236;51.022;6.818;2023-03-03T07:23:14;1.50;99.90
6407;DHT22;3236;51.022;6.818;2023-03-03T07:25:44;1.70;99.90
6407;DHT22;3236;51.022;6.818;2023-03-03T07:28:19;1.90;99.90
6407;DHT22;3236;51.022;6.818;2023-03-03T07:30:48;1.80;99.90
6407;DHT22;3236;51.022;6.818;2023-03-03T07:33:25;2.00;99.90
6407;DHT22;3236;51.022;6.818;2023-03-03T07:35:54;2.00;99.90
6407;DHT22;3236;51.022;6.818;2023-03-03T07:38:30;2.50;99.90
6407;DHT22;3236;51.022;6.818;2023-03-03T07:41:01;1.90;99.90
6407;DHT22;3236;51.022;6.818;2023-03-03T07:43:35;1.80;99.90
6407;DHT22;3236;51.022;6.818;2023-03-03T07:46:20;2.10;99.90
6407;DHT22;3236;51.022;6.818;2023-03-03T07:48:51;2.00;99.90
6407;DHT22;3236;51.022;6.818;2023-03-03T07:51:21;2.10;99.90
6407;DHT22;3236;51.022;6.818;2023-03-03T07:56:26;2.00;99.90
6407;DHT22;3236;51.022;6.818;2023-03-03T07:58:54;2.10;99.90
6407;DHT22;3236;51.022;6.818;2023-03-03T08:01:39;2.40;99.90
6407;DHT22;3236;51.022;6.818;2023-03-03T08:04:21;2.50;99.90
6407;DHT22;3236;51.022;6.818;2023-03-03T08:06:51;1.90;99.90
6407;DHT22;3236;51.022;6.818;2023-03-03T08:09:35;2.20;99.90
6407;DHT22;3236;51.022;6.818;2023-03-03T08:15:20;2.30;99.90
6407;DHT22;3236;51.022;6.818;2023-03-03T08:17:50;2.10;99.90
6407;DHT22;3236;51.022;6.818;2023-03-03T08:20:47;2.20;99.90
6407;DHT22;3236;51.022;6.818;2023-03-03T08:23:16;2.60;99.90
6407;DHT22;3236;51.022;6.818;2023-03-03T08:25:44;2.50;99.90
6407;DHT22;3236;51.022;6.818;2023-03-03T08:28:11;2.50;99.90
6407;DHT22;3236;51.022;6.818;2023-03-03T08:30:39;2.40;99.90
6407;DHT22;3236;51.022;6.818;2023-03-03T08:33:06;2.20;99.90
6407;DHT22;3236;51.022;6.818;2023-03-03T08:35:33;2.60;99.90
6407;DHT22;3236;51.022;6.818;2023-03-03T08:38:02;2.70;99.90
6407;DHT22;3236;51.022;6.818;2023-03-03T08:40:35;2.70;99.90
6407;DHT22;3236;51.022;6.818;2023-03-03T08:43:02;2.30;99.90
6407;DHT22;3236;51.022;6.818;2023-03-03T08:45:30;2.30;99.90
6407;DHT22;3236;51.022;6.818;2023-03-03T08:47:57;2.80;99.90
6407;DHT22;3236;51.022;6.818;2023-03-03T08:50:25;2.70;99.90
6407;DHT22;3236;51.022;6.818;2023-03-03T08:52:53;2.80;99.90
6407;DHT22;3236;51.022;6.818;2023-03-03T08:55:21;2.90;99.90
6407;DHT22;3236;51.022;6.818;2023-03-03T08:57:48;2.70;99.90
6407;DHT22;3236;51.022;6.818;2023-03-03T09:00:17;2.90;99.90
6407;DHT22;3236;51.022;6.818;2023-03-03T09:02:45;2.80;99.90
6407;DHT22;3236;51.022;6.818;2023-03-03T09:05:12;2.70;99.90
6407;DHT22;3236;51.022;6.818;2023-03-03T09:07:41;3.50;99.90
6407;DHT22;3236;51.022;6.818;2023-03-03T09:10:09;2.70;99.90
6407;DHT22;3236;51.022;6.818;2023-03-03T09:12:40;3.20;99.90
6407;DHT22;3236;51.022;6.818;2023-03-03T09:15:20;2.90;99.90
6407;DHT22;3236;51.022;6.818;2023-03-03T09:17:48;3.20;99.90
6407;DHT22;3236;51.022;6.818;2023-03-03T09:20:31;3.20;99.90
6407;DHT22;3236;51.022;6.818;2023-03-03T09:23:28;3.60;99.90
6407;DHT22;3236;51.022;6.818;2023-03-03T09:25:56;3.40;99.90
6407;DHT22;3236;51.022;6.818;2023-03-03T09:28:27;3.50;99.90
6407;DHT22;3236;51.022;6.818;2023-03-03T09:30:57;3.20;99.90
6407;DHT22;3236;51.022;6.818;2023-03-03T09:33:27;3.50;99.90
6407;DHT22;3236;51.022;6.818;2023-03-03T09:38:42;3.60;99.90
6407;DHT22;3236;51.022;6.818;2023-03-03T09:44:25;3.40;99.90
6407;DHT22;3236;51.022;6.818;2023-03-03T09:47:12;3.60;99.90
6407;DHT22;3236;51.022;6.818;2023-03-03T09:49:53;3.90;99.90
6407;DHT22;3236;51.022;6.818;2023-03-03T09:52:36;3.80;99.90
6407;DHT22;3236;51.022;6.818;2023-03-03T09:55:27;3.70;99.90
6407;DHT22;3236;51.022;6.818;2023-03-03T09:58:12;4.00;99.90
6407;DHT22;3236;51.022;6.818;2023-03-03T10:00:53;3.70;99.90
6407;DHT22;3236;51.022;6.818;2023-03-03T10:03:37;3.90;99.90
6407;DHT22;3236;51.022;6.818;2023-03-03T10:06:20;3.70;99.90
6407;DHT22;3236;51.022;6.818;2023-03-03T10:09:04;3.50;99.90
6407;DHT22;3236;51.022;6.818;2023-03-03T10:11:39;3.70;99.90
6407;DHT22;3236;51.022;6.818;2023-03-03T10:14:28;3.50;99.90
6407;DHT22;3236;51.022;6.818;2023-03-03T10:17:15;3.60;99.90
6407;DHT22;3236;51.022;6.818;2023-03-03T10:19:53;3.70;99.90
6407;DHT22;3236;51.022;6.818;2023-03-03T10:22:26;4.10;99.90
6407;DHT22;3236;51.022;6.818;2023-03-03T10:25:07;3.70;99.90
6407;DHT22;3236;51.022;6.818;2023-03-03T10:28:02;3.80;99.90
6407;DHT22;3236;51.022;6.818;2023-03-03T10:30:39;3.50;99.90
6407;DHT22;3236;51.022;6.818;2023-03-03T10:33:17;4.10;99.90
6407;DHT22;3236;51.022;6.818;2023-03-03T10:36:10;3.80;99.90
6407;DHT22;3236;51.022;6.818;2023-03-03T10:38:49;4.00;99.90
6407;DHT22;3236;51.022;6.818;2023-03-03T10:41:41;4.00;99.90
6407;DHT22;3236;51.022;6.818;2023-03-03T10:44:37;4.10;99.90
6407;DHT22;3236;51.022;6.818;2023-03-03T10:47:22;3.90;99.90
6407;DHT22;3236;51.022;6.818;2023-03-03T10:50:02;4.20;99.90
6407;DHT22;3236;51.022;6.818;2023-03-03T10:52:35;4.10;99.90
6407;DHT22;3236;51.022;6.818;2023-03-03T10:55:38;4.40;99.90
6407;DHT22;3236;51.022;6.818;2023-03-03T10:58:19;4.90;99.90
6407;DHT22;3236;51.022;6.818;2023-03-03T11:00:51;4.40;99.90
6407;DHT22;3236;51.022;6.818;2023-03-03T11:06:42;4.30;99.90
6407;DHT22;3236;51.022;6.818;2023-03-03T11:09:19;4.40;99.90
6407;DHT22;3236;51.022;6.818;2023-03-03T11:11:54;4.40;99.90
6407;DHT22;3236;51.022;6.818;2023-03-03T11:14:32;4.50;99.90
6407;DHT22;3236;51.022;6.818;2023-03-03T11:17:03;4.20;99.90
6407;DHT22;3236;51.022;6.818;2023-03-03T11:19:36;4.10;99.90
6407;DHT22;3236;51.022;6.818;2023-03-03T11:22:18;4.10;99.90
6407;DHT22;3236;51.022;6.818;2023-03-03T11:24:54;4.00;99.90
6407;DHT22;3236;51.022;6.818;2023-03-03T11:27:37;4.20;99.90
6407;DHT22;3236;51.022;6.818;2023-03-03T11:30:20;4.20;99.90
6407;DHT22;3236;51.022;6.818;2023-03-03T11:32:55;4.10;99.90
6407;DHT22;3236;51.022;6.818;2023-03-03T11:35:36;4.20;99.90
6407;DHT22;3236;51.022;6.818;2023-03-03T11:41:10;4.40;99.90
6407;DHT22;3236;51.022;6.818;2023-03-03T11:43:42;4.30;99.90
6407;DHT22;3236;51.022;6.818;2023-03-03T11:46:12;4.30;99.90
6407;DHT22;3236;51.022;6.818;2023-03-03T11:48:46;4.30;99.90
6407;DHT22;3236;51.022;6.818;2023-03-03T11:51:22;4.90;99.90
6407;DHT22;3236;51.022;6.818;2023-03-03T11:54:04;4.50;99.90
6407;DHT22;3236;51.022;6.818;2023-03-03T11:56:39;4.60;99.90
6407;DHT22;3236;51.022;6.818;2023-03-03T11:59:49;4.70;99.90
6407;DHT22;3236;51.022;6.818;2023-03-03T12:02:29;4.90;99.90
6407;DHT22;3236;51.022;6.818;2023-03-03T12:05:05;4.90;99.90
6407;DHT22;3236;51.022;6.818;2023-03-03T12:07:42;5.40;99.90
6407;DHT22;3236;51.022;6.818;2023-03-03T12:10:23;5.30;99.90
6407;DHT22;3236;51.022;6.818;2023-03-03T12:12:57;5.80;99.90
6407;DHT22;3236;51.022;6.818;2023-03-03T12:15:32;5.10;99.90
6407;DHT22;3236;51.022;6.818;2023-03-03T12:21:18;5.70;99.90
6407;DHT22;3236;51.022;6.818;2023-03-03T12:24:09;5.60;99.90
6407;DHT22;3236;51.022;6.818;2023-03-03T12:26:48;5.70;99.90
6407;DHT22;3236;51.022;6.818;2023-03-03T12:29:25;5.70;99.90
6407;DHT22;3236;51.022;6.818;2023-03-03T12:32:01;5.40;99.90
6407;DHT22;3236;51.022;6.818;2023-03-03T12:34:35;5.30;99.90
6407;DHT22;3236;51.022;6.818;2023-03-03T12:37:11;5.40;99.90
6407;DHT22;3236;51.022;6.818;2023-03-03T12:39:47;5.30;99.90
6407;DHT22;3236;51.022;6.818;2023-03-03T12:42:26;5.30;99.90
6407;DHT22;3236;51.022;6.818;2023-03-03T12:45:02;5.50;99.90
6407;DHT22;3236;51.022;6.818;2023-03-03T12:47:37;4.80;99.90
6407;DHT22;3236;51.022;6.818;2023-03-03T12:50:25;5.50;99.90
6407;DHT22;3236;51.022;6.818;2023-03-03T12:53:00;5.40;99.90
6407;DHT22;3236;51.022;6.818;2023-03-03T12:55:36;5.40;99.90
6407;DHT22;3236;51.022;6.818;2023-03-03T12:58:18;5.30;99.90
6407;DHT22;3236;51.022;6.818;2023-03-03T13:00:53;5.30;99.90
6407;DHT22;3236;51.022;6.818;2023-03-03T13:03:35;5.30;99.90
6407;DHT22;3236;51.022;6.818;2023-03-03T13:06:10;5.30;99.90
6407;DHT22;3236;51.022;6.818;2023-03-03T13:08:56;5.30;99.90
6407;DHT22;3236;51.022;6.818;2023-03-03T13:11:40;5.50;99.90
6407;DHT22;3236;51.022;6.818;2023-03-03T13:14:21;5.60;99.90
6407;DHT22;3236;51.022;6.818;2023-03-03T13:17:00;5.30;99.90
6407;DHT22;3236;51.022;6.818;2023-03-03T13:19:32;5.70;99.90
6407;DHT22;3236;51.022;6.818;2023-03-03T13:22:08;5.10;99.90
6407;DHT22;3236;51.022;6.818;2023-03-03T13:24:54;5.40;99.90
6407;DHT22;3236;51.022;6.818;2023-03-03T13:27:25;6.00;99.90
6407;DHT22;3236;51.022;6.818;2023-03-03T13:29:59;5.50;99.90
6407;DHT22;3236;51.022;6.818;2023-03-03T13:32:34;6.00;99.90
6407;DHT22;3236;51.022;6.818;2023-03-03T13:35:07;6.00;99.90
6407;DHT22;3236;51.022;6.818;2023-03-03T13:37:36;6.00;99.90
6407;DHT22;3236;51.022;6.818;2023-03-03T13:40:12;5.90;99.90
6407;DHT22;3236;51.022;6.818;2023-03-03T13:42:47;6.00;99.90
6407;DHT22;3236;51.022;6.818;2023-03-03T13:45:24;6.10;99.90
6407;DHT22;3236;51.022;6.818;2023-03-03T13:47:59;6.40;99.90
6407;DHT22;3236;51.022;6.818;2023-03-03T13:50:31;6.00;99.90
6407;DHT22;3236;51.022;6.818;2023-03-03T13:53:14;6.30;99.90
6407;DHT22;3236;51.022;6.818;2023-03-03T13:55:49;6.70;99.90
6407;DHT22;3236;51.022;6.818;2023-03-03T13:58:24;6.40;99.90
6407;DHT22;3236;51.022;6.818;2023-03-03T14:01:04;6.50;99.90
6407;DHT22;3236;51.022;6.818;2023-03-03T14:03:42;6.50;99.90
6407;DHT22;3236;51.022;6.818;2023-03-03T14:06:15;6.50;99.90
6407;DHT22;3236;51.022;6.818;2023-03-03T14:09:17;6.10;99.90
6407;DHT22;3236;51.022;6.818;2023-03-03T14:11:53;6.10;99.90
6407;DHT22;3236;51.022;6.818;2023-03-03T14:14:40;5.40;99.90
6407;DHT22;3236;51.022;6.818;2023-03-03T14:17:22;5.20;99.90
6407;DHT22;3236;51.022;6.818;2023-03-03T14:20:09;5.70;99.90
6407;DHT22;3236;51.022;6.818;2023-03-03T14:22:43;6.80;99.90
6407;DHT22;3236;51.022;6.818;2023-03-03T14:25:12;6.90;99.90
6407;DHT22;3236;51.022;6.818;2023-03-03T14:27:51;7.10;99.90
6407;DHT22;3236;51.022;6.818;2023-03-03T14:30:32;6.70;99.90
6407;DHT22;3236;51.022;6.818;2023-03-03T14:33:14;7.10;99.90
6407;DHT22;3236;51.022;6.818;2023-03-03T14:35:43;8.40;99.90
6407;DHT22;3236;51.022;6.818;2023-03-03T14:38:13;8.20;99.90
6407;DHT22;3236;51.022;6.818;2023-03-03T14:40:42;8.40;99.90
6407;DHT22;3236;51.022;6.818;2023-03-03T14:43:21;8.40;99.90
6407;DHT22;3236;51.022;6.818;2023-03-03T14:45:49;8.50;99.90
6407;DHT22;3236;51.022;6.818;2023-03-03T14:48:19;9.00;99.90
6407;DHT22;3236;51.022;6.818;2023-03-03T14:50:49;8.30;99.90
6407;DHT22;3236;51.022;6.818;2023-03-03T14:53:29;8.50;99.90
6407;DHT22;3236;51.022;6.818;2023-03-03T14:56:15;8.00;99.90
6407;DHT22;3236;51.022;6.818;2023-03-03T15:01:16;9.50;99.90
6407;DHT22;3236;51.022;6.818;2023-03-03T15:03:51;9.80;99.90
6407;DHT22;3236;51.022;6.818;2023-03-03T15:06:34;9.40;99.90
6407;DHT22;3236;51.022;6.818;2023-03-03T15:09:25;8.30;99.90
6407;DHT22;3236;51.022;6.818;2023-03-03T15:12:00;7.90;99.90
6407;DHT22;3236;51.022;6.818;2023-03-03T15:14:31;7.90;99.90
6407;DHT22;3236;51.022;6.818;2023-03-03T15:17:23;8.30;99.90
6407;DHT22;3236;51.022;6.818;2023-03-03T15:22:47;8.50;99.90
6407;DHT22;3236;51.022;6.818;2023-03-03T15:25:21;8.90;99.90
6407;DHT22;3236;51.022;6.818;2023-03-03T15:28:05;8.90;99.90
6407;DHT22;3236;51.022;6.818;2023-03-03T15:30:42;9.30;99.90
6407;DHT22;3236;51.022;6.818;2023-03-03T15:33:17;9.00;99.90
6407;DHT22;3236;51.022;6.818;2023-03-03T15:35:55;9.60;99.90
6407;DHT22;3236;51.022;6.818;2023-03-03T15:38:33;9.70;99.90
6407;DHT22;3236;51.022;6.818;2023-03-03T15:41:13;9.80;99.90
6407;DHT22;3236;51.022;6.818;2023-03-03T15:43:55;9.20;99.90
6407;DHT22;3236;51.022;6.818;2023-03-03T15:46:30;9.90;99.90
6407;DHT22;3236;51.022;6.818;2023-03-03T15:49:12;9.80;99.90
6407;DHT22;3236;51.022;6.818;2023-03-03T15:51:53;9.20;99.90
6407;DHT22;3236;51.022;6.818;2023-03-03T15:54:36;8.50;99.90
6407;DHT22;3236;51.022;6.818;2023-03-03T15:57:13;7.90;99.90
6407;DHT22;3236;51.022;6.818;2023-03-03T15:59:59;6.90;99.90
6407;DHT22;3236;51.022;6.818;2023-03-03T16:02:38;6.30;99.90
6407;DHT22;3236;51.022;6.818;2023-03-03T16:05:14;5.90;99.90
6407;DHT22;3236;51.022;6.818;2023-03-03T16:07:51;5.60;99.90
6407;DHT22;3236;51.022;6.818;2023-03-03T16:10:31;5.90;99.90
6407;DHT22;3236;51.022;6.818;2023-03-03T16:13:19;5.60;99.90
6407;DHT22;3236;51.022;6.818;2023-03-03T16:15:53;5.60;99.90
6407;DHT22;3236;51.022;6.818;2023-03-03T16:18:36;5.60;99.90
6407;DHT22;3236;51.022;6.818;2023-03-03T16:21:18;5.30;99.90
6407;DHT22;3236;51.022;6.818;2023-03-03T16:23:50;5.40;99.90
6407;DHT22;3236;51.022;6.818;2023-03-03T16:26:30;5.20;99.90
6407;DHT22;3236;51.022;6.818;2023-03-03T16:29:30;5.50;99.90
6407;DHT22;3236;51.022;6.818;2023-03-03T16:32:05;5.20;99.90
6407;DHT22;3236;51.022;6.818;2023-03-03T16:34:41;5.10;99.90
6407;DHT22;3236;51.022;6.818;2023-03-03T16:37:17;4.90;99.90
6407;DHT22;3236;51.022;6.818;2023-03-03T16:39:52;4.60;99.90
6407;DHT22;3236;51.022;6.818;2023-03-03T16:42:26;4.50;99.90
6407;DHT22;3236;51.022;6.818;2023-03-03T16:47:54;4.50;99.90
6407;DHT22;3236;51.022;6.818;2023-03-03T16:50:34;4.40;99.90
6407;DHT22;3236;51.022;6.818;2023-03-03T16:53:09;4.10;99.90
6407;DHT22;3236;51.022;6.818;2023-03-03T16:55:48;4.00;99.90
6407;DHT22;3236;51.022;6.818;2023-03-03T16:58:32;4.10;99.90
6407;DHT22;3236;51.022;6.818;2023-03-03T17:01:09;3.90;99.90
6407;DHT22;3236;51.022;6.818;2023-03-03T17:06:35;3.70;99.90
6407;DHT22;3236;51.022;6.818;2023-03-03T17:09:35;3.70;99.90
6407;DHT22;3236;51.022;6.818;2023-03-03T17:12:34;3.40;99.90
6407;DHT22;3236;51.022;6.818;2023-03-03T17:15:21;2.90;99.90
6407;DHT22;3236;51.022;6.818;2023-03-03T17:17:59;2.90;99.90
6407;DHT22;3236;51.022;6.818;2023-03-03T17:20:38;2.90;99.90
6407;DHT22;3236;51.022;6.818;2023-03-03T17:26:17;2.80;99.90
6407;DHT22;3236;51.022;6.818;2023-03-03T17:28:53;2.60;99.90
6407;DHT22;3236;51.022;6.818;2023-03-03T17:31:29;2.90;99.90
6407;DHT22;3236;51.022;6.818;2023-03-03T17:34:12;2.60;99.90
6407;DHT22;3236;51.022;6.818;2023-03-03T17:36:53;2.20;99.90
6407;DHT22;3236;51.022;6.818;2023-03-03T17:39:39;2.60;99.90
6407;DHT22;3236;51.022;6.818;2023-03-03T17:42:18;2.70;99.90
6407;DHT22;3236;51.022;6.818;2023-03-03T17:44:55;2.50;99.90
6407;DHT22;3236;51.022;6.818;2023-03-03T17:47:44;2.40;99.90
6407;DHT22;3236;51.022;6.818;2023-03-03T17:50:28;2.00;99.90
6407;DHT22;3236;51.022;6.818;2023-03-03T17:53:34;1.80;99.90